createdAt,value
2018-11-27T00:00:25.027Z,12.30
2018-11-27T00:02:54.729Z,12.40
2018-11-27T00:05:24.562Z,12.40
2018-11-27T00:07:55.122Z,12.40
2018-11-27T00:10:24.578Z,12.40
2018-11-27T00:12:55.932Z,12.40
2018-11-27T00:15:26.648Z,12.50
2018-11-27T00:17:56.827Z,12.50
2018-11-27T00:20:27.695Z,12.50
2018-11-27T00:22:58.893Z,12.50
2018-11-27T00:25:29.203Z,12.50
2018-11-27T00:28:00.278Z,12.50
2018-11-27T00:30:30.107Z,12.40
2018-11-27T00:32:59.509Z,12.40
2018-11-27T00:35:29.107Z,12.40
2018-11-27T00:37:58.662Z,12.30
2018-11-27T00:40:28.115Z,12.40
2018-11-27T00:42:57.771Z,12.40
2018-11-27T00:45:27.247Z,12.50
2018-11-27T00:47:56.646Z,12.40
2018-11-27T00:50:26.279Z,12.40
2018-11-27T00:52:56.827Z,12.40
2018-11-27T00:55:26.352Z,12.40
2018-11-27T00:57:56.023Z,12.50
2018-11-27T01:00:27.023Z,12.60
2018-11-27T01:02:57.253Z,12.60
2018-11-27T01:05:26.764Z,12.60
2018-11-27T01:07:56.307Z,12.60
2018-11-27T01:10:25.710Z,12.60
2018-11-27T01:12:55.438Z,12.60
2018-11-27T01:15:24.913Z,12.60
2018-11-27T01:17:54.669Z,12.60
2018-11-27T01:20:24.839Z,12.60
2018-11-27T01:22:56.543Z,12.60
2018-11-27T01:25:26.090Z,12.60
2018-11-27T01:27:55.629Z,12.60
2018-11-27T01:30:25.139Z,12.60
2018-11-27T01:32:55.249Z,12.60
2018-11-27T01:35:24.823Z,12.60
2018-11-27T01:37:54.337Z,12.60
2018-11-27T01:40:24.477Z,12.50
2018-11-27T01:42:54.485Z,12.50
2018-11-27T01:45:25.099Z,12.50
2018-11-27T01:47:54.493Z,12.50
2018-11-27T01:50:24.018Z,12.50
2018-11-27T01:52:53.501Z,12.50
2018-11-27T01:55:24.970Z,12.50
2018-11-27T01:57:54.330Z,12.50
2018-11-27T02:00:24.387Z,12.50
2018-11-27T02:02:55.121Z,12.50
2018-11-27T02:05:25.370Z,12.60
2018-11-27T02:07:58.197Z,12.60
2018-11-27T02:10:27.712Z,12.60
2018-11-27T02:13:01.261Z,12.50
2018-11-27T02:15:27.152Z,12.60
2018-11-27T02:17:56.847Z,12.60
2018-11-27T02:20:26.712Z,12.60
2018-11-27T02:22:56.374Z,12.60
2018-11-27T02:25:25.807Z,12.60
2018-11-27T02:27:56.607Z,12.60
2018-11-27T02:30:26.524Z,12.70
2018-11-27T02:32:56.783Z,12.60
2018-11-27T02:35:26.676Z,12.60
2018-11-27T02:37:56.274Z,12.60
2018-11-27T02:40:26.699Z,12.70
2018-11-27T02:42:56.691Z,12.70
2018-11-27T02:45:26.419Z,12.80
2018-11-27T02:47:56.069Z,12.80
2018-11-27T02:50:25.797Z,12.70
2018-11-27T02:52:56.266Z,12.70
2018-11-27T02:55:25.769Z,12.70
2018-11-27T02:57:55.918Z,12.70
2018-11-27T03:00:25.607Z,12.70
2018-11-27T03:02:55.789Z,12.70
2018-11-27T03:05:25.459Z,12.70
2018-11-27T03:07:54.978Z,12.70
2018-11-27T03:10:24.781Z,12.70
2018-11-27T03:12:54.226Z,12.80
2018-11-27T03:15:24.651Z,12.70
2018-11-27T03:17:54.270Z,12.70
2018-11-27T03:20:23.901Z,12.70
2018-11-27T03:22:55.198Z,12.70
2018-11-27T03:25:25.566Z,12.70
2018-11-27T03:27:55.198Z,12.70
2018-11-27T03:30:24.856Z,12.70
2018-11-27T03:32:54.223Z,12.70
2018-11-27T03:35:23.812Z,12.60
2018-11-27T03:37:53.320Z,12.70
2018-11-27T03:40:22.826Z,12.60
2018-11-27T03:42:53.008Z,12.50
2018-11-27T03:45:22.771Z,12.50
2018-11-27T03:47:52.464Z,12.50
2018-11-27T03:50:21.704Z,12.50
2018-11-27T03:52:51.327Z,12.60
2018-11-27T03:55:22.261Z,12.60
2018-11-27T03:57:52.875Z,12.70
2018-11-27T04:00:24.501Z,12.70
2018-11-27T04:02:57.709Z,12.70
2018-11-27T04:05:30.418Z,12.70
2018-11-27T04:08:20.389Z,12.70
2018-11-27T04:11:00.746Z,12.70
2018-11-27T04:13:31.343Z,12.70
2018-11-27T04:16:02.911Z,12.60
2018-11-27T04:18:34.836Z,12.70
2018-11-27T04:21:06.815Z,12.70
2018-11-27T04:23:36.712Z,12.70
2018-11-27T04:26:08.837Z,12.60
2018-11-27T04:28:39.851Z,12.60
2018-11-27T04:31:11.293Z,12.60
2018-11-27T04:33:41.722Z,12.60
2018-11-27T04:36:12.860Z,12.60
2018-11-27T04:38:44.590Z,12.60
2018-11-27T04:41:16.574Z,12.60
2018-11-27T04:43:49.262Z,12.70
2018-11-27T04:46:20.222Z,12.70
2018-11-27T04:48:50.219Z,12.70
2018-11-27T04:51:19.908Z,12.70
2018-11-27T04:53:50.743Z,12.70
2018-11-27T04:56:24.892Z,12.70
2018-11-27T04:58:55.029Z,12.70
2018-11-27T05:01:25.442Z,12.80
2018-11-27T05:03:56.178Z,12.80
2018-11-27T05:06:26.819Z,12.80
2018-11-27T05:08:56.685Z,12.80
2018-11-27T05:11:27.462Z,12.90
2018-11-27T05:13:57.378Z,12.90
2018-11-27T05:16:26.988Z,13.00
2018-11-27T05:18:59.753Z,13.00
2018-11-27T05:21:32.258Z,13.00
2018-11-27T05:24:02.099Z,13.00
2018-11-27T05:26:32.900Z,12.90
2018-11-27T05:29:03.970Z,12.90
2018-11-27T05:31:34.789Z,12.90
2018-11-27T05:34:05.078Z,12.80
2018-11-27T05:36:34.447Z,12.70
2018-11-27T05:39:04.090Z,12.70
2018-11-27T05:41:33.300Z,12.80
2018-11-27T05:44:03.089Z,12.80
2018-11-27T05:46:32.949Z,12.90
2018-11-27T05:49:02.639Z,12.90
2018-11-27T05:51:32.979Z,12.90
2018-11-27T05:54:03.030Z,12.90
2018-11-27T05:56:32.989Z,12.90
2018-11-27T05:59:02.689Z,12.90
2018-11-27T06:01:33.217Z,12.90
2018-11-27T06:04:03.142Z,12.90
2018-11-27T06:06:33.474Z,12.90
2018-11-27T06:09:03.250Z,12.80
2018-11-27T06:11:34.819Z,12.90
2018-11-27T06:14:06.427Z,12.90
2018-11-27T06:16:40.639Z,13.00
2018-11-27T06:19:10.172Z,12.90
2018-11-27T06:21:39.740Z,13.00
2018-11-27T06:24:09.424Z,13.00
2018-11-27T06:26:38.960Z,13.00
2018-11-27T06:29:08.696Z,12.90
2018-11-27T06:31:39.375Z,12.90
2018-11-27T06:34:09.095Z,12.90
2018-11-27T06:36:38.893Z,12.90
2018-11-27T06:39:09.014Z,12.90
2018-11-27T06:41:38.499Z,12.90
2018-11-27T06:44:08.475Z,12.90
2018-11-27T06:46:38.054Z,12.90
2018-11-27T06:49:07.734Z,12.90
2018-11-27T06:51:37.985Z,13.00
2018-11-27T06:54:08.284Z,12.90
2018-11-27T06:56:38.128Z,13.00
2018-11-27T06:59:07.759Z,13.00
2018-11-27T07:01:38.205Z,12.90
2018-11-27T07:04:09.199Z,12.90
2018-11-27T07:06:39.149Z,12.80
2018-11-27T07:09:08.613Z,12.80
2018-11-27T07:11:38.790Z,12.80
2018-11-27T07:14:09.393Z,12.80
2018-11-27T07:16:39.096Z,12.80
2018-11-27T07:19:08.700Z,12.80
2018-11-27T07:21:38.253Z,12.80
2018-11-27T07:24:08.104Z,12.90
2018-11-27T07:26:37.356Z,12.90
2018-11-27T07:29:07.845Z,13.00
2018-11-27T07:31:37.423Z,12.90
2018-11-27T07:34:07.250Z,12.90
2018-11-27T07:36:36.922Z,12.90
2018-11-27T07:39:06.760Z,12.90
2018-11-27T07:41:36.516Z,12.80
2018-11-27T07:44:06.807Z,12.80
2018-11-27T07:46:37.437Z,12.80
2018-11-27T07:49:07.249Z,12.80
2018-11-27T07:51:36.767Z,12.90
2018-11-27T07:54:07.275Z,12.90
2018-11-27T07:56:38.118Z,12.90
2018-11-27T07:59:07.732Z,12.90
2018-11-27T08:01:41.369Z,12.80
2018-11-27T08:04:11.521Z,12.80
2018-11-27T08:06:41.148Z,12.80
2018-11-27T08:09:10.706Z,12.80
2018-11-27T08:11:40.135Z,12.90
2018-11-27T08:14:09.724Z,12.90
2018-11-27T08:16:39.854Z,12.80
2018-11-27T08:19:09.607Z,12.80
2018-11-27T08:21:39.193Z,12.90
2018-11-27T08:24:08.629Z,12.90
2018-11-27T08:26:38.147Z,13.00
2018-11-27T08:29:07.893Z,13.10
2018-11-27T08:31:37.628Z,13.10
2018-11-27T08:34:06.877Z,13.20
2018-11-27T08:36:37.735Z,13.10
2018-11-27T08:39:07.963Z,13.10
2018-11-27T08:41:40.369Z,13.00
2018-11-27T08:44:09.300Z,13.10
2018-11-27T08:46:38.599Z,13.10
2018-11-27T08:49:08.192Z,13.10
2018-11-27T08:51:37.945Z,13.10
2018-11-27T08:54:07.719Z,13.20
2018-11-27T08:56:37.276Z,13.20
2018-11-27T08:59:06.887Z,13.30
2018-11-27T09:01:36.765Z,13.20
2018-11-27T09:04:06.579Z,13.20
2018-11-27T09:06:36.739Z,13.20
2018-11-27T09:09:06.985Z,13.20
2018-11-27T09:11:36.723Z,13.10
2018-11-27T09:14:16.522Z,13.20
2018-11-27T09:16:45.857Z,13.20
2018-11-27T09:19:15.317Z,13.20
2018-11-27T09:21:46.018Z,13.30
2018-11-27T09:24:15.382Z,13.30
2018-11-27T09:26:45.769Z,13.30
2018-11-27T09:29:15.384Z,13.30
2018-11-27T09:31:46.614Z,13.30
2018-11-27T09:34:15.925Z,13.30
2018-11-27T09:36:45.239Z,13.20
2018-11-27T09:39:14.781Z,13.30
2018-11-27T09:41:44.337Z,13.30
2018-11-27T09:44:13.931Z,13.20
2018-11-27T09:46:47.138Z,13.20
2018-11-27T09:49:16.676Z,13.10
2018-11-27T09:51:46.036Z,13.10
2018-11-27T09:54:16.173Z,13.20
2018-11-27T09:56:45.994Z,13.10
2018-11-27T09:59:17.147Z,13.10
2018-11-27T10:01:46.828Z,13.00
2018-11-27T10:04:18.398Z,13.10
2018-11-27T10:06:49.029Z,13.10
2018-11-27T10:09:18.659Z,13.20
2018-11-27T10:11:48.242Z,13.20
2018-11-27T10:14:17.818Z,13.10
2018-11-27T10:16:47.766Z,13.10
2018-11-27T10:19:17.322Z,13.00
2018-11-27T10:21:46.809Z,13.10
2018-11-27T10:24:17.531Z,13.10
2018-11-27T10:26:47.020Z,13.10
2018-11-27T10:29:16.491Z,13.00
2018-11-27T10:31:47.679Z,12.90
2018-11-27T10:34:16.982Z,12.90
2018-11-27T10:36:47.031Z,12.90
2018-11-27T10:39:16.895Z,12.80
2018-11-27T10:41:47.639Z,12.70
2018-11-27T10:44:17.068Z,12.80
2018-11-27T10:46:46.369Z,12.80
2018-11-27T10:49:16.117Z,12.80
2018-11-27T10:51:48.089Z,12.80
2018-11-27T10:54:17.653Z,12.80
2018-11-27T10:56:47.343Z,12.80
2018-11-27T10:59:16.821Z,12.80
2018-11-27T11:01:47.939Z,12.80
2018-11-27T11:04:17.766Z,12.80
2018-11-27T11:06:48.250Z,12.70
2018-11-27T11:09:18.149Z,12.70
2018-11-27T11:11:47.580Z,12.80
2018-11-27T11:14:17.142Z,12.70
2018-11-27T11:16:46.853Z,12.70
2018-11-27T11:19:18.442Z,12.70
2018-11-27T11:21:46.653Z,12.70
2018-11-27T11:24:16.635Z,12.70
2018-11-27T11:26:46.481Z,12.70
2018-11-27T11:29:16.277Z,12.70
2018-11-27T11:31:45.936Z,12.70
2018-11-27T11:34:15.305Z,12.70
2018-11-27T11:36:45.080Z,12.70
2018-11-27T11:39:14.584Z,12.80
2018-11-27T11:41:44.330Z,12.80
2018-11-27T11:44:14.570Z,12.80
2018-11-27T11:46:45.173Z,12.70
2018-11-27T11:49:14.848Z,12.70
2018-11-27T11:51:45.342Z,12.80
2018-11-27T11:54:14.906Z,12.70
2018-11-27T11:56:44.603Z,12.70
2018-11-27T11:59:14.260Z,12.70
2018-11-27T12:01:46.735Z,12.70
2018-11-27T12:04:17.116Z,12.70
2018-11-27T12:06:46.836Z,12.60
2018-11-27T12:09:16.838Z,12.60
2018-11-27T12:11:46.827Z,12.40
2018-11-27T12:14:16.982Z,12.40
2018-11-27T12:16:46.382Z,12.40
2018-11-27T12:19:16.098Z,12.40
2018-11-27T12:21:45.507Z,12.30
2018-11-27T12:24:14.866Z,12.30
2018-11-27T12:26:44.432Z,12.20
2018-11-27T12:29:14.159Z,12.20
2018-11-27T12:31:44.739Z,12.30
2018-11-27T12:34:14.279Z,12.20
2018-11-27T12:36:44.231Z,12.20
2018-11-27T12:39:13.654Z,12.10
2018-11-27T12:41:43.221Z,12.10
2018-11-27T12:44:14.352Z,12.10
2018-11-27T12:46:43.895Z,12.10
2018-11-27T12:49:13.760Z,12.10
2018-11-27T12:51:43.521Z,12.00
2018-11-27T12:54:13.024Z,12.00
2018-11-27T12:56:43.777Z,12.00
2018-11-27T12:59:12.312Z,12.00
2018-11-27T13:01:43.442Z,12.00
2018-11-27T13:04:13.213Z,11.90
2018-11-27T13:06:43.133Z,12.00
2018-11-27T13:09:12.788Z,12.00
2018-11-27T13:11:42.532Z,12.00
2018-11-27T13:14:12.202Z,12.00
2018-11-27T13:16:41.677Z,12.00
2018-11-27T13:19:11.174Z,12.10
2018-11-27T13:21:41.352Z,12.00
2018-11-27T13:24:11.016Z,12.00
2018-11-27T13:26:40.519Z,12.10
2018-11-27T13:29:09.923Z,12.10
2018-11-27T13:31:39.681Z,12.10
2018-11-27T13:34:09.900Z,12.10
2018-11-27T13:36:39.320Z,12.10
2018-11-27T13:39:20.034Z,12.10
2018-11-27T13:41:50.555Z,12.10
2018-11-27T13:44:20.371Z,12.20
2018-11-27T13:46:50.236Z,12.10
2018-11-27T13:49:20.056Z,12.10
2018-11-27T13:51:50.304Z,12.20
2018-11-27T13:54:22.697Z,12.10
2018-11-27T13:56:52.835Z,12.10
2018-11-27T13:59:22.394Z,12.10
2018-11-27T14:01:52.240Z,12.20
2018-11-27T14:04:21.617Z,12.20
2018-11-27T14:06:51.544Z,12.30
2018-11-27T14:09:21.186Z,12.20
2018-11-27T14:11:52.830Z,12.20
2018-11-27T14:14:22.388Z,12.30
2018-11-27T14:16:51.874Z,12.40
2018-11-27T14:19:21.616Z,12.40
2018-11-27T14:21:51.086Z,12.40
2018-11-27T14:24:20.853Z,12.40
2018-11-27T14:26:51.564Z,12.30
2018-11-27T14:29:21.771Z,12.40
2018-11-27T14:31:51.416Z,12.40
2018-11-27T14:34:21.264Z,12.30
2018-11-27T14:36:50.764Z,12.40
2018-11-27T14:39:20.435Z,12.40
2018-11-27T14:41:49.815Z,12.30
2018-11-27T14:44:19.338Z,12.30
2018-11-27T14:46:48.874Z,12.30
2018-11-27T14:49:18.402Z,12.30
2018-11-27T14:51:48.893Z,12.30
2018-11-27T14:54:18.429Z,12.30
2018-11-27T14:56:48.122Z,12.30
2018-11-27T14:59:17.750Z,12.30
2018-11-27T15:01:47.974Z,12.40
2018-11-27T15:04:18.356Z,12.30
2018-11-27T15:06:47.906Z,12.40
2018-11-27T15:09:17.650Z,12.30
2018-11-27T15:11:50.891Z,12.30
2018-11-27T15:14:25.170Z,12.30
2018-11-27T15:16:50.562Z,12.30
2018-11-27T15:19:20.059Z,12.30
2018-11-27T15:21:49.438Z,12.40
2018-11-27T15:24:19.809Z,12.40
2018-11-27T15:26:49.506Z,12.40
2018-11-27T15:29:19.108Z,12.40
2018-11-27T15:31:48.771Z,12.30
2018-11-27T15:34:18.678Z,12.40
2018-11-27T15:36:48.445Z,12.40
2018-11-27T15:39:18.986Z,12.40
2018-11-27T15:41:48.605Z,12.40
2018-11-27T15:44:17.917Z,12.50
2018-11-27T15:46:47.794Z,12.50
2018-11-27T15:49:17.413Z,12.50
2018-11-27T15:51:47.073Z,12.50
2018-11-27T15:54:16.377Z,12.50
2018-11-27T15:56:45.855Z,12.50
2018-11-27T15:59:15.334Z,12.50
2018-11-27T16:01:44.797Z,12.50
2018-11-27T16:04:15.201Z,12.60
2018-11-27T16:06:44.692Z,12.60
2018-11-27T16:09:14.303Z,12.60
2018-11-27T16:11:44.393Z,12.60
2018-11-27T16:14:14.530Z,12.70
2018-11-27T16:16:44.040Z,12.70
2018-11-27T16:19:14.433Z,12.60
2018-11-27T16:21:43.875Z,12.50
2018-11-27T16:24:13.847Z,12.50
2018-11-27T16:26:43.571Z,12.50
2018-11-27T16:29:13.921Z,12.50
2018-11-27T16:31:44.933Z,12.50
2018-11-27T16:34:14.120Z,12.50
2018-11-27T16:36:43.786Z,12.50
2018-11-27T16:39:13.319Z,12.60
2018-11-27T16:41:42.881Z,12.70
2018-11-27T16:44:12.861Z,13.00
2018-11-27T16:46:42.353Z,13.90
2018-11-27T16:49:12.113Z,14.60
2018-11-27T16:51:41.788Z,14.90
2018-11-27T16:54:11.890Z,15.10
2018-11-27T16:56:42.129Z,15.50
2018-11-27T16:59:13.015Z,15.80
2018-11-27T17:01:45.139Z,16.30
2018-11-27T17:04:16.301Z,16.50
2018-11-27T17:06:58.157Z,17.00
2018-11-27T17:09:38.078Z,17.10
2018-11-27T17:12:16.774Z,17.10
2018-11-27T17:14:46.946Z,17.50
2018-11-27T17:17:18.270Z,18.10
2018-11-27T17:19:49.840Z,18.10
2018-11-27T17:22:19.688Z,18.80
2018-11-27T17:24:54.728Z,19.30
2018-11-27T17:27:25.187Z,20.30
2018-11-27T17:29:58.242Z,20.60
2018-11-27T17:32:28.223Z,21.00
2018-11-27T17:34:57.698Z,21.10
2018-11-27T17:37:33.711Z,20.50
2018-11-27T17:40:08.984Z,20.40
2018-11-27T17:42:39.617Z,19.90
2018-11-27T17:45:10.563Z,19.90
2018-11-27T17:50:40.984Z,20.10
2018-11-27T17:53:10.577Z,19.50
2018-11-27T17:55:40.911Z,18.90
2018-11-27T17:58:10.496Z,18.90
2018-11-27T18:00:40.839Z,17.50
2018-11-27T18:03:10.320Z,17.50
2018-11-27T18:05:41.824Z,16.50
2018-11-27T18:08:11.428Z,16.40
2018-11-27T18:10:40.906Z,16.30
2018-11-27T18:13:10.528Z,16.20
2018-11-27T18:15:40.046Z,16.40
2018-11-27T18:18:09.815Z,16.50
2018-11-27T18:20:40.277Z,16.40
2018-11-27T18:23:09.830Z,16.40
2018-11-27T18:25:39.447Z,16.30
2018-11-27T18:28:08.881Z,16.30
2018-11-27T18:30:39.218Z,16.40
2018-11-27T18:33:09.436Z,16.70
2018-11-27T18:35:38.923Z,18.40
2018-11-27T18:38:08.335Z,18.70
2018-11-27T18:40:37.726Z,18.70
2018-11-27T18:43:08.563Z,18.60
2018-11-27T18:45:38.883Z,17.70
2018-11-27T18:48:09.301Z,17.50
2018-11-27T18:50:38.832Z,17.50
2018-11-27T18:53:08.471Z,17.50
2018-11-27T18:55:38.132Z,17.30
2018-11-27T18:58:07.747Z,17.50
2018-11-27T19:00:37.370Z,17.80
2018-11-27T19:03:06.852Z,19.10
2018-11-27T19:05:36.579Z,22.10
2018-11-27T19:08:06.764Z,24.50
2018-11-27T19:10:36.542Z,25.50
2018-11-27T19:13:06.921Z,26.90
2018-11-27T19:15:37.046Z,28.10
2018-11-27T19:18:06.799Z,28.60
2018-11-27T19:20:36.934Z,27.80
2018-11-27T19:23:06.592Z,26.70
2018-11-27T19:25:36.210Z,24.70
2018-11-27T19:28:06.369Z,24.60
2018-11-27T19:30:39.311Z,24.00
2018-11-27T19:33:08.647Z,23.00
2018-11-27T19:35:38.318Z,22.50
2018-11-27T19:38:08.226Z,22.80
2018-11-27T19:40:37.598Z,23.20
2018-11-27T19:43:07.056Z,23.30
2018-11-27T19:45:36.988Z,23.50
2018-11-27T19:48:10.355Z,23.60
2018-11-27T19:50:41.019Z,23.50
2018-11-27T19:53:12.257Z,23.00
2018-11-27T19:55:41.411Z,23.10
2018-11-27T19:58:11.567Z,24.00
2018-11-27T20:00:41.171Z,23.90
2018-11-27T20:03:10.582Z,22.80
2018-11-27T20:05:41.028Z,21.10
2018-11-27T20:08:10.762Z,21.10
2018-11-27T20:10:41.399Z,20.40
2018-11-27T20:13:10.932Z,20.30
2018-11-27T20:15:40.873Z,19.70
2018-11-27T20:18:10.889Z,19.60
2018-11-27T20:20:40.527Z,19.60
2018-11-27T20:23:10.002Z,19.70
2018-11-27T20:25:39.796Z,20.20
2018-11-27T20:28:09.165Z,20.20
2018-11-27T20:30:38.995Z,19.40
2018-11-27T20:33:09.459Z,19.10
2018-11-27T20:35:39.044Z,18.50
2018-11-27T20:38:08.828Z,17.70
2018-11-27T20:40:38.105Z,17.50
2018-11-27T20:43:08.501Z,19.80
2018-11-27T20:45:38.556Z,19.80
2018-11-27T20:48:07.983Z,21.40
2018-11-27T20:50:37.733Z,20.90
2018-11-27T20:53:07.979Z,20.10
2018-11-27T20:55:37.315Z,19.60
2018-11-27T20:58:07.849Z,19.20
2018-11-27T21:00:37.156Z,18.80
2018-11-27T21:03:08.001Z,18.50
2018-11-27T21:05:37.427Z,17.80
2018-11-27T21:08:06.301Z,17.40
2018-11-27T21:10:36.257Z,17.40
2018-11-27T21:13:06.907Z,17.60
2018-11-27T21:15:36.247Z,17.50
2018-11-27T21:18:05.872Z,17.30
2018-11-27T21:20:35.149Z,17.20
2018-11-27T21:23:05.081Z,17.10
2018-11-27T21:25:34.745Z,16.80
2018-11-27T21:28:04.984Z,16.70
2018-11-27T21:30:34.492Z,16.70
2018-11-27T21:33:03.716Z,16.80
2018-11-27T21:35:33.275Z,16.80
2018-11-27T21:38:03.722Z,16.70
2018-11-27T21:40:33.569Z,16.60
2018-11-27T21:43:02.838Z,16.50
2018-11-27T21:45:32.657Z,16.30
2018-11-27T21:48:02.005Z,16.10
2018-11-27T21:50:31.203Z,16.00
2018-11-27T21:53:01.158Z,15.80
2018-11-27T21:55:30.659Z,15.60
2018-11-27T21:58:00.080Z,15.60
2018-11-27T22:00:29.637Z,15.60
2018-11-27T22:03:00.046Z,15.40
2018-11-27T22:05:29.719Z,15.20
2018-11-27T22:07:59.683Z,15.10
2018-11-27T22:10:29.993Z,14.90
2018-11-27T22:12:59.615Z,14.80
2018-11-27T22:15:29.123Z,14.70
2018-11-27T22:17:59.195Z,14.70
2018-11-27T22:20:29.629Z,14.80
2018-11-27T22:22:59.028Z,14.70
2018-11-27T22:25:28.521Z,14.50
2018-11-27T22:27:58.699Z,14.50
2018-11-27T22:30:28.142Z,14.40
2018-11-27T22:32:57.921Z,14.60
2018-11-27T22:35:29.342Z,15.40
2018-11-27T22:37:59.011Z,15.20
2018-11-27T22:40:28.521Z,14.70
2018-11-27T22:42:58.033Z,14.50
2018-11-27T22:45:27.403Z,14.40
2018-11-27T22:47:57.085Z,14.30
2018-11-27T22:50:26.963Z,14.20
2018-11-27T22:52:57.113Z,14.10
2018-11-27T22:55:27.957Z,14.20
2018-11-27T22:57:58.922Z,14.10
2018-11-27T23:00:28.868Z,14.20
2018-11-27T23:02:58.569Z,14.20
2018-11-27T23:05:28.375Z,14.30
2018-11-27T23:07:58.198Z,14.20
2018-11-27T23:10:28.012Z,14.20
2018-11-27T23:12:57.459Z,14.20
2018-11-27T23:15:27.350Z,14.10
2018-11-27T23:17:56.971Z,14.10
2018-11-27T23:20:26.977Z,14.10
2018-11-27T23:22:56.590Z,14.10
2018-11-27T23:25:26.284Z,14.00
2018-11-27T23:27:57.345Z,14.00
2018-11-27T23:30:28.156Z,13.90
2018-11-27T23:32:58.446Z,13.90
2018-11-27T23:35:28.381Z,13.90
2018-11-27T23:37:58.513Z,13.90
2018-11-27T23:40:29.204Z,13.90
2018-11-27T23:42:58.912Z,13.80
2018-11-27T23:45:28.482Z,13.80
2018-11-27T23:47:59.180Z,13.70
2018-11-27T23:50:29.638Z,13.70
2018-11-27T23:52:59.148Z,13.70
2018-11-27T23:55:31.041Z,13.70
2018-11-27T23:58:00.604Z,13.70
